sensor_id;sensor_type;location;lat;lon;timestamp;P1;durP1;ratioP1;P2;durP2;ratioP2
79137;SDS011;68544;45.566;10.238;2023-10-19T00:01:59;36.53;;;32.67;;
79137;SDS011;68544;45.566;10.238;2023-10-19T00:04:25;34.97;;;31.38;;
79137;SDS011;68544;45.566;10.238;2023-10-19T00:06:51;36.25;;;32.30;;
79137;SDS011;68544;45.566;10.238;2023-10-19T00:09:18;36.97;;;33.10;;
79137;SDS011;68544;45.566;10.238;2023-10-19T00:11:45;36.47;;;32.53;;
79137;SDS011;68544;45.566;10.238;2023-10-19T00:14:11;35.90;;;32.17;;
79137;SDS011;68544;45.566;10.238;2023-10-19T00:16:43;36.13;;;31.35;;
79137;SDS011;68544;45.566;10.238;2023-10-19T00:19:15;35.67;;;31.95;;
79137;SDS011;68544;45.566;10.238;2023-10-19T00:21:44;37.70;;;33.55;;
79137;SDS011;68544;45.566;10.238;2023-10-19T00:24:17;36.10;;;32.30;;
79137;SDS011;68544;45.566;10.238;2023-10-19T00:26:44;37.05;;;32.95;;
79137;SDS011;68544;45.566;10.238;2023-10-19T00:29:10;38.85;;;34.58;;
79137;SDS011;68544;45.566;10.238;2023-10-19T00:31:54;36.53;;;31.38;;
79137;SDS011;68544;45.566;10.238;2023-10-19T00:34:21;36.90;;;32.90;;
79137;SDS011;68544;45.566;10.238;2023-10-19T00:36:47;36.15;;;32.25;;
79137;SDS011;68544;45.566;10.238;2023-10-19T00:39:13;35.15;;;31.45;;
79137;SDS011;68544;45.566;10.238;2023-10-19T00:41:52;34.80;;;31.10;;
79137;SDS011;68544;45.566;10.238;2023-10-19T00:44:22;36.10;;;32.35;;
79137;SDS011;68544;45.566;10.238;2023-10-19T00:46:50;35.35;;;31.55;;
79137;SDS011;68544;45.566;10.238;2023-10-19T00:49:25;35.75;;;31.95;;
79137;SDS011;68544;45.566;10.238;2023-10-19T00:51:52;36.88;;;32.88;;
79137;SDS011;68544;45.566;10.238;2023-10-19T00:54:27;37.05;;;33.13;;
79137;SDS011;68544;45.566;10.238;2023-10-19T00:57:00;39.88;;;34.85;;
79137;SDS011;68544;45.566;10.238;2023-10-19T00:59:32;39.03;;;34.85;;
79137;SDS011;68544;45.566;10.238;2023-10-19T01:02:03;36.38;;;32.40;;
79137;SDS011;68544;45.566;10.238;2023-10-19T01:04:48;37.10;;;33.10;;
79137;SDS011;68544;45.566;10.238;2023-10-19T01:07:31;35.90;;;32.13;;
79137;SDS011;68544;45.566;10.238;2023-10-19T01:10:02;36.28;;;32.38;;
79137;SDS011;68544;45.566;10.238;2023-10-19T01:12:30;36.13;;;32.40;;
79137;SDS011;68544;45.566;10.238;2023-10-19T01:17:48;36.78;;;32.88;;
79137;SDS011;68544;45.566;10.238;2023-10-19T01:20:26;36.13;;;32.25;;
79137;SDS011;68544;45.566;10.238;2023-10-19T01:22:56;36.28;;;32.47;;
79137;SDS011;68544;45.566;10.238;2023-10-19T01:25:44;38.38;;;33.60;;
79137;SDS011;68544;45.566;10.238;2023-10-19T01:28:19;34.60;;;30.85;;
79137;SDS011;68544;45.566;10.238;2023-10-19T01:30:50;35.25;;;31.58;;
79137;SDS011;68544;45.566;10.238;2023-10-19T01:33:18;36.58;;;32.67;;
79137;SDS011;68544;45.566;10.238;2023-10-19T01:35:44;37.33;;;33.35;;
79137;SDS011;68544;45.566;10.238;2023-10-19T01:38:29;41.13;;;35.88;;
79137;SDS011;68544;45.566;10.238;2023-10-19T01:41:02;42.40;;;36.65;;
79137;SDS011;68544;45.566;10.238;2023-10-19T01:43:38;39.45;;;34.10;;
79137;SDS011;68544;45.566;10.238;2023-10-19T01:46:05;37.85;;;33.58;;
79137;SDS011;68544;45.566;10.238;2023-10-19T01:48:37;44.15;;;35.40;;
79137;SDS011;68544;45.566;10.238;2023-10-19T01:51:04;40.85;;;34.28;;
79137;SDS011;68544;45.566;10.238;2023-10-19T01:55:56;34.92;;;31.10;;
79137;SDS011;68544;45.566;10.238;2023-10-19T01:58:25;34.60;;;30.60;;
79137;SDS011;68544;45.566;10.238;2023-10-19T02:00:51;37.47;;;33.28;;
79137;SDS011;68544;45.566;10.238;2023-10-19T02:03:21;39.08;;;33.45;;
79137;SDS011;68544;45.566;10.238;2023-10-19T02:05:59;37.50;;;33.40;;
79137;SDS011;68544;45.566;10.238;2023-10-19T02:08:27;39.22;;;34.92;;
79137;SDS011;68544;45.566;10.238;2023-10-19T02:10:53;36.47;;;32.50;;
79137;SDS011;68544;45.566;10.238;2023-10-19T02:13:21;37.80;;;33.72;;
79137;SDS011;68544;45.566;10.238;2023-10-19T02:15:46;36.00;;;32.10;;
79137;SDS011;68544;45.566;10.238;2023-10-19T02:18:12;37.47;;;33.30;;
79137;SDS011;68544;45.566;10.238;2023-10-19T02:20:37;36.07;;;32.37;;
79137;SDS011;68544;45.566;10.238;2023-10-19T02:23:07;36.67;;;32.78;;
79137;SDS011;68544;45.566;10.238;2023-10-19T02:25:33;37.08;;;32.22;;
79137;SDS011;68544;45.566;10.238;2023-10-19T02:28:03;39.90;;;35.00;;
79137;SDS011;68544;45.566;10.238;2023-10-19T02:30:32;44.58;;;35.20;;
79137;SDS011;68544;45.566;10.238;2023-10-19T02:32:59;40.72;;;34.90;;
79137;SDS011;68544;45.566;10.238;2023-10-19T02:35:25;38.38;;;34.13;;
79137;SDS011;68544;45.566;10.238;2023-10-19T02:37:52;40.03;;;35.55;;
79137;SDS011;68544;45.566;10.238;2023-10-19T02:40:17;37.97;;;33.87;;
79137;SDS011;68544;45.566;10.238;2023-10-19T02:42:48;36.78;;;32.70;;
79137;SDS011;68544;45.566;10.238;2023-10-19T02:45:15;45.08;;;39.05;;
79137;SDS011;68544;45.566;10.238;2023-10-19T02:47:44;38.35;;;34.05;;
79137;SDS011;68544;45.566;10.238;2023-10-19T02:50:11;39.22;;;34.35;;
79137;SDS011;68544;45.566;10.238;2023-10-19T02:52:42;37.83;;;33.83;;
79137;SDS011;68544;45.566;10.238;2023-10-19T02:55:08;38.47;;;34.28;;
79137;SDS011;68544;45.566;10.238;2023-10-19T02:57:37;39.83;;;35.53;;
79137;SDS011;68544;45.566;10.238;2023-10-19T03:00:06;43.87;;;36.77;;
79137;SDS011;68544;45.566;10.238;2023-10-19T03:02:39;46.63;;;38.38;;
79137;SDS011;68544;45.566;10.238;2023-10-19T03:05:05;43.53;;;36.65;;
79137;SDS011;68544;45.566;10.238;2023-10-19T03:07:39;39.10;;;33.90;;
79137;SDS011;68544;45.566;10.238;2023-10-19T03:10:05;38.83;;;34.63;;
79137;SDS011;68544;45.566;10.238;2023-10-19T03:12:31;37.30;;;32.80;;
79137;SDS011;68544;45.566;10.238;2023-10-19T03:17:25;39.72;;;32.70;;
79137;SDS011;68544;45.566;10.238;2023-10-19T03:19:50;39.43;;;34.27;;
79137;SDS011;68544;45.566;10.238;2023-10-19T03:22:15;40.43;;;35.47;;
79137;SDS011;68544;45.566;10.238;2023-10-19T03:24:42;39.55;;;35.30;;
79137;SDS011;68544;45.566;10.238;2023-10-19T03:27:14;38.65;;;33.35;;
79137;SDS011;68544;45.566;10.238;2023-10-19T03:29:42;37.53;;;33.35;;
79137;SDS011;68544;45.566;10.238;2023-10-19T03:32:11;43.83;;;35.55;;
79137;SDS011;68544;45.566;10.238;2023-10-19T03:34:37;43.30;;;36.85;;
79137;SDS011;68544;45.566;10.238;2023-10-19T03:39:34;54.50;;;41.60;;
79137;SDS011;68544;45.566;10.238;2023-10-19T03:42:03;53.35;;;40.17;;
79137;SDS011;68544;45.566;10.238;2023-10-19T03:44:31;51.47;;;41.20;;
79137;SDS011;68544;45.566;10.238;2023-10-19T03:47:10;52.22;;;40.28;;
79137;SDS011;68544;45.566;10.238;2023-10-19T03:49:43;52.97;;;39.38;;
79137;SDS011;68544;45.566;10.238;2023-10-19T03:52:09;40.97;;;34.67;;
79137;SDS011;68544;45.566;10.238;2023-10-19T03:54:34;41.30;;;35.33;;
79137;SDS011;68544;45.566;10.238;2023-10-19T03:57:06;40.15;;;34.75;;
79137;SDS011;68544;45.566;10.238;2023-10-19T03:59:45;44.20;;;37.13;;
79137;SDS011;68544;45.566;10.238;2023-10-19T04:02:15;39.22;;;34.90;;
79137;SDS011;68544;45.566;10.238;2023-10-19T04:04:42;42.53;;;36.50;;
79137;SDS011;68544;45.566;10.238;2023-10-19T04:07:14;53.22;;;40.53;;
79137;SDS011;68544;45.566;10.238;2023-10-19T04:09:49;42.70;;;36.85;;
79137;SDS011;68544;45.566;10.238;2023-10-19T04:12:29;35.33;;;31.55;;
79137;SDS011;68544;45.566;10.238;2023-10-19T04:17:21;36.10;;;32.30;;
79137;SDS011;68544;45.566;10.238;2023-10-19T04:19:49;34.45;;;29.95;;
79137;SDS011;68544;45.566;10.238;2023-10-19T04:22:16;36.33;;;32.40;;
79137;SDS011;68544;45.566;10.238;2023-10-19T04:24:48;36.97;;;32.20;;
79137;SDS011;68544;45.566;10.238;2023-10-19T04:27:16;37.55;;;33.00;;
79137;SDS011;68544;45.566;10.238;2023-10-19T04:29:41;47.37;;;37.53;;
79137;SDS011;68544;45.566;10.238;2023-10-19T04:32:09;41.15;;;33.42;;
79137;SDS011;68544;45.566;10.238;2023-10-19T04:34:35;33.33;;;29.83;;
79137;SDS011;68544;45.566;10.238;2023-10-19T04:37:02;39.00;;;32.20;;
79137;SDS011;68544;45.566;10.238;2023-10-19T04:41:55;40.42;;;33.67;;
79137;SDS011;68544;45.566;10.238;2023-10-19T04:44:21;43.05;;;36.10;;
79137;SDS011;68544;45.566;10.238;2023-10-19T04:46:47;41.58;;;33.25;;
79137;SDS011;68544;45.566;10.238;2023-10-19T04:49:13;44.33;;;36.20;;
79137;SDS011;68544;45.566;10.238;2023-10-19T04:51:38;42.17;;;35.13;;
79137;SDS011;68544;45.566;10.238;2023-10-19T04:54:04;42.20;;;32.87;;
79137;SDS011;68544;45.566;10.238;2023-10-19T04:56:31;42.65;;;35.28;;
79137;SDS011;68544;45.566;10.238;2023-10-19T04:58:57;40.70;;;34.47;;
79137;SDS011;68544;45.566;10.238;2023-10-19T05:01:22;40.13;;;34.37;;
79137;SDS011;68544;45.566;10.238;2023-10-19T05:03:48;38.63;;;33.77;;
79137;SDS011;68544;45.566;10.238;2023-10-19T05:06:13;36.93;;;32.87;;
79137;SDS011;68544;45.566;10.238;2023-10-19T05:08:38;39.70;;;32.73;;
79137;SDS011;68544;45.566;10.238;2023-10-19T05:11:04;39.17;;;32.40;;
79137;SDS011;68544;45.566;10.238;2023-10-19T05:13:30;39.55;;;35.05;;
79137;SDS011;68544;45.566;10.238;2023-10-19T05:15:56;43.72;;;37.03;;
79137;SDS011;68544;45.566;10.238;2023-10-19T05:18:24;46.15;;;36.78;;
79137;SDS011;68544;45.566;10.238;2023-10-19T05:20:50;46.78;;;36.67;;
79137;SDS011;68544;45.566;10.238;2023-10-19T05:23:20;48.65;;;37.72;;
79137;SDS011;68544;45.566;10.238;2023-10-19T05:25:52;48.90;;;37.40;;
79137;SDS011;68544;45.566;10.238;2023-10-19T05:28:19;49.03;;;38.90;;
79137;SDS011;68544;45.566;10.238;2023-10-19T05:30:46;48.47;;;38.28;;
79137;SDS011;68544;45.566;10.238;2023-10-19T05:33:13;47.83;;;38.55;;
79137;SDS011;68544;45.566;10.238;2023-10-19T05:35:39;51.40;;;38.97;;
79137;SDS011;68544;45.566;10.238;2023-10-19T05:38:08;54.53;;;40.60;;
79137;SDS011;68544;45.566;10.238;2023-10-19T05:40:34;59.90;;;43.00;;
79137;SDS011;68544;45.566;10.238;2023-10-19T05:43:01;58.45;;;42.50;;
79137;SDS011;68544;45.566;10.238;2023-10-19T05:45:27;62.53;;;43.80;;
79137;SDS011;68544;45.566;10.238;2023-10-19T05:47:54;63.05;;;44.95;;
79137;SDS011;68544;45.566;10.238;2023-10-19T05:50:21;57.78;;;43.35;;
79137;SDS011;68544;45.566;10.238;2023-10-19T05:52:46;61.03;;;43.87;;
79137;SDS011;68544;45.566;10.238;2023-10-19T05:55:13;62.25;;;44.17;;
79137;SDS011;68544;45.566;10.238;2023-10-19T05:57:39;59.47;;;42.97;;
79137;SDS011;68544;45.566;10.238;2023-10-19T06:00:09;61.78;;;43.33;;
79137;SDS011;68544;45.566;10.238;2023-10-19T06:02:42;59.63;;;43.95;;
79137;SDS011;68544;45.566;10.238;2023-10-19T06:05:09;64.88;;;45.58;;
79137;SDS011;68544;45.566;10.238;2023-10-19T06:07:35;62.92;;;44.47;;
79137;SDS011;68544;45.566;10.238;2023-10-19T06:10:00;58.13;;;42.43;;
79137;SDS011;68544;45.566;10.238;2023-10-19T06:12:30;66.40;;;46.10;;
79137;SDS011;68544;45.566;10.238;2023-10-19T06:14:56;58.60;;;42.42;;
79137;SDS011;68544;45.566;10.238;2023-10-19T06:17:21;54.87;;;42.27;;
79137;SDS011;68544;45.566;10.238;2023-10-19T06:19:47;58.90;;;43.37;;
79137;SDS011;68544;45.566;10.238;2023-10-19T06:22:12;56.63;;;41.53;;
79137;SDS011;68544;45.566;10.238;2023-10-19T06:24:40;52.83;;;40.08;;
79137;SDS011;68544;45.566;10.238;2023-10-19T06:27:05;53.70;;;39.90;;
79137;SDS011;68544;45.566;10.238;2023-10-19T06:29:31;49.57;;;36.93;;
79137;SDS011;68544;45.566;10.238;2023-10-19T06:31:56;54.07;;;38.30;;
79137;SDS011;68544;45.566;10.238;2023-10-19T06:34:22;46.83;;;37.57;;
79137;SDS011;68544;45.566;10.238;2023-10-19T06:36:47;49.30;;;37.17;;
79137;SDS011;68544;45.566;10.238;2023-10-19T06:39:12;53.60;;;38.13;;
79137;SDS011;68544;45.566;10.238;2023-10-19T06:41:38;45.83;;;36.55;;
79137;SDS011;68544;45.566;10.238;2023-10-19T06:44:04;43.33;;;34.08;;
79137;SDS011;68544;45.566;10.238;2023-10-19T06:48:56;47.03;;;36.40;;
79137;SDS011;68544;45.566;10.238;2023-10-19T06:51:25;38.53;;;31.17;;
79137;SDS011;68544;45.566;10.238;2023-10-19T06:56:17;43.65;;;33.80;;
79137;SDS011;68544;45.566;10.238;2023-10-19T06:58:42;40.87;;;33.17;;
79137;SDS011;68544;45.566;10.238;2023-10-19T07:01:08;41.50;;;33.80;;
79137;SDS011;68544;45.566;10.238;2023-10-19T07:03:33;42.97;;;34.87;;
79137;SDS011;68544;45.566;10.238;2023-10-19T07:05:59;36.00;;;31.03;;
79137;SDS011;68544;45.566;10.238;2023-10-19T07:08:25;39.28;;;32.90;;
79137;SDS011;68544;45.566;10.238;2023-10-19T07:10:52;40.35;;;31.67;;
79137;SDS011;68544;45.566;10.238;2023-10-19T07:15:45;36.22;;;30.10;;
79137;SDS011;68544;45.566;10.238;2023-10-19T07:20:37;34.95;;;30.10;;
79137;SDS011;68544;45.566;10.238;2023-10-19T07:23:03;36.38;;;31.67;;
79137;SDS011;68544;45.566;10.238;2023-10-19T07:25:43;38.25;;;32.45;;
79137;SDS011;68544;45.566;10.238;2023-10-19T07:28:09;40.60;;;32.60;;
79137;SDS011;68544;45.566;10.238;2023-10-19T07:30:37;37.00;;;31.80;;
79137;SDS011;68544;45.566;10.238;2023-10-19T07:33:03;37.50;;;31.55;;
79137;SDS011;68544;45.566;10.238;2023-10-19T07:35:33;35.25;;;30.33;;
79137;SDS011;68544;45.566;10.238;2023-10-19T07:38:00;38.38;;;32.17;;
79137;SDS011;68544;45.566;10.238;2023-10-19T07:42:52;35.50;;;30.15;;
79137;SDS011;68544;45.566;10.238;2023-10-19T07:45:19;37.78;;;30.25;;
79137;SDS011;68544;45.566;10.238;2023-10-19T07:47:44;39.13;;;31.70;;
79137;SDS011;68544;45.566;10.238;2023-10-19T07:50:13;34.93;;;28.80;;
79137;SDS011;68544;45.566;10.238;2023-10-19T07:52:42;34.80;;;29.65;;
79137;SDS011;68544;45.566;10.238;2023-10-19T07:55:09;34.20;;;29.85;;
79137;SDS011;68544;45.566;10.238;2023-10-19T07:57:35;35.13;;;29.88;;
79137;SDS011;68544;45.566;10.238;2023-10-19T08:00:00;34.47;;;30.23;;
79137;SDS011;68544;45.566;10.238;2023-10-19T08:02:26;33.05;;;28.17;;
79137;SDS011;68544;45.566;10.238;2023-10-19T08:04:53;35.65;;;31.77;;
79137;SDS011;68544;45.566;10.238;2023-10-19T08:07:19;34.40;;;29.40;;
79137;SDS011;68544;45.566;10.238;2023-10-19T08:09:45;32.93;;;29.47;;
79137;SDS011;68544;45.566;10.238;2023-10-19T08:12:10;32.60;;;29.30;;
79137;SDS011;68544;45.566;10.238;2023-10-19T08:14:38;33.15;;;29.45;;
79137;SDS011;68544;45.566;10.238;2023-10-19T08:17:05;36.85;;;29.88;;
79137;SDS011;68544;45.566;10.238;2023-10-19T08:19:33;31.88;;;28.60;;
79137;SDS011;68544;45.566;10.238;2023-10-19T08:21:59;31.23;;;27.83;;
79137;SDS011;68544;45.566;10.238;2023-10-19T08:24:25;30.97;;;27.67;;
79137;SDS011;68544;45.566;10.238;2023-10-19T08:26:54;31.92;;;28.63;;
79137;SDS011;68544;45.566;10.238;2023-10-19T08:29:20;30.27;;;27.00;;
79137;SDS011;68544;45.566;10.238;2023-10-19T08:34:11;29.70;;;26.55;;
79137;SDS011;68544;45.566;10.238;2023-10-19T08:36:38;30.83;;;26.10;;
79137;SDS011;68544;45.566;10.238;2023-10-19T08:39:07;30.38;;;27.23;;
79137;SDS011;68544;45.566;10.238;2023-10-19T08:41:37;32.85;;;27.23;;
79137;SDS011;68544;45.566;10.238;2023-10-19T08:44:04;29.48;;;26.30;;
79137;SDS011;68544;45.566;10.238;2023-10-19T08:46:39;30.23;;;26.33;;
79137;SDS011;68544;45.566;10.238;2023-10-19T08:49:08;29.70;;;26.50;;
79137;SDS011;68544;45.566;10.238;2023-10-19T08:51:36;31.20;;;27.88;;
79137;SDS011;68544;45.566;10.238;2023-10-19T08:54:02;41.83;;;34.45;;
79137;SDS011;68544;45.566;10.238;2023-10-19T08:56:30;39.25;;;34.85;;
79137;SDS011;68544;45.566;10.238;2023-10-19T08:58:56;41.60;;;34.75;;
79137;SDS011;68544;45.566;10.238;2023-10-19T09:01:21;50.07;;;41.40;;
79137;SDS011;68544;45.566;10.238;2023-10-19T09:03:49;47.08;;;39.10;;
79137;SDS011;68544;45.566;10.238;2023-10-19T09:06:15;48.95;;;40.13;;
79137;SDS011;68544;45.566;10.238;2023-10-19T09:08:41;55.93;;;42.93;;
79137;SDS011;68544;45.566;10.238;2023-10-19T09:11:09;60.90;;;42.63;;
79137;SDS011;68544;45.566;10.238;2023-10-19T09:13:45;52.78;;;42.60;;
79137;SDS011;68544;45.566;10.238;2023-10-19T09:16:13;53.20;;;42.33;;
79137;SDS011;68544;45.566;10.238;2023-10-19T09:18:42;47.03;;;37.85;;
79137;SDS011;68544;45.566;10.238;2023-10-19T09:23:36;38.67;;;34.05;;
79137;SDS011;68544;45.566;10.238;2023-10-19T09:26:02;40.13;;;35.13;;
79137;SDS011;68544;45.566;10.238;2023-10-19T09:28:28;39.53;;;33.13;;
79137;SDS011;68544;45.566;10.238;2023-10-19T09:30:55;32.30;;;28.98;;
79137;SDS011;68544;45.566;10.238;2023-10-19T09:33:21;28.23;;;25.33;;
79137;SDS011;68544;45.566;10.238;2023-10-19T09:35:49;31.20;;;27.92;;
79137;SDS011;68544;45.566;10.238;2023-10-19T09:38:18;30.02;;;26.83;;
79137;SDS011;68544;45.566;10.238;2023-10-19T09:40:50;30.08;;;26.48;;
79137;SDS011;68544;45.566;10.238;2023-10-19T09:44:01;27.63;;;24.88;;
79137;SDS011;68544;45.566;10.238;2023-10-19T09:46:09;28.02;;;23.30;;
79137;SDS011;68544;45.566;10.238;2023-10-19T09:48:39;28.30;;;25.33;;
79137;SDS011;68544;45.566;10.238;2023-10-19T09:51:07;27.15;;;24.00;;
79137;SDS011;68544;45.566;10.238;2023-10-19T09:53:34;22.95;;;20.58;;
79137;SDS011;68544;45.566;10.238;2023-10-19T09:56:01;26.75;;;23.95;;
79137;SDS011;68544;45.566;10.238;2023-10-19T09:58:33;26.38;;;23.65;;
79137;SDS011;68544;45.566;10.238;2023-10-19T10:01:06;31.50;;;27.95;;
79137;SDS011;68544;45.566;10.238;2023-10-19T10:03:50;30.98;;;26.05;;
79137;SDS011;68544;45.566;10.238;2023-10-19T10:07:02;35.10;;;30.40;;
79137;SDS011;68544;45.566;10.238;2023-10-19T10:09:20;32.42;;;28.92;;
79137;SDS011;68544;45.566;10.238;2023-10-19T10:11:49;34.72;;;31.02;;
79137;SDS011;68544;45.566;10.238;2023-10-19T10:14:23;33.95;;;30.33;;
79137;SDS011;68544;45.566;10.238;2023-10-19T10:17:02;34.42;;;30.77;;
79137;SDS011;68544;45.566;10.238;2023-10-19T10:19:30;33.90;;;30.25;;
79137;SDS011;68544;45.566;10.238;2023-10-19T10:24:44;31.17;;;27.98;;
79137;SDS011;68544;45.566;10.238;2023-10-19T10:27:09;28.45;;;25.48;;
79137;SDS011;68544;45.566;10.238;2023-10-19T10:29:51;27.02;;;24.40;;
79137;SDS011;68544;45.566;10.238;2023-10-19T10:33:04;27.55;;;24.85;;
79137;SDS011;68544;45.566;10.238;2023-10-19T10:38:06;25.75;;;23.25;;
79137;SDS011;68544;45.566;10.238;2023-10-19T10:40:43;26.60;;;23.90;;
79137;SDS011;68544;45.566;10.238;2023-10-19T10:43:09;24.83;;;22.38;;
79137;SDS011;68544;45.566;10.238;2023-10-19T10:48:01;22.33;;;20.08;;
79137;SDS011;68544;45.566;10.238;2023-10-19T10:50:26;23.33;;;21.02;;
79137;SDS011;68544;45.566;10.238;2023-10-19T10:52:55;23.67;;;21.25;;
79137;SDS011;68544;45.566;10.238;2023-10-19T10:55:23;23.50;;;21.20;;
79137;SDS011;68544;45.566;10.238;2023-10-19T10:57:50;23.52;;;21.23;;
79137;SDS011;68544;45.566;10.238;2023-10-19T11:00:16;22.90;;;20.67;;
79137;SDS011;68544;45.566;10.238;2023-10-19T11:02:44;23.63;;;21.42;;
79137;SDS011;68544;45.566;10.238;2023-10-19T11:05:11;27.05;;;24.35;;
79137;SDS011;68544;45.566;10.238;2023-10-19T11:07:41;25.25;;;22.73;;
79137;SDS011;68544;45.566;10.238;2023-10-19T11:10:26;27.13;;;24.42;;
79137;SDS011;68544;45.566;10.238;2023-10-19T11:12:59;35.83;;;30.38;;
79137;SDS011;68544;45.566;10.238;2023-10-19T11:15:25;32.50;;;28.77;;
79137;SDS011;68544;45.566;10.238;2023-10-19T11:17:51;41.38;;;34.55;;
79137;SDS011;68544;45.566;10.238;2023-10-19T11:20:23;39.10;;;34.83;;
79137;SDS011;68544;45.566;10.238;2023-10-19T11:22:50;37.50;;;33.20;;
79137;SDS011;68544;45.566;10.238;2023-10-19T11:25:20;36.75;;;31.77;;
79137;SDS011;68544;45.566;10.238;2023-10-19T11:27:53;35.35;;;31.55;;
79137;SDS011;68544;45.566;10.238;2023-10-19T11:32:48;24.95;;;22.55;;
79137;SDS011;68544;45.566;10.238;2023-10-19T11:35:17;23.38;;;20.92;;
79137;SDS011;68544;45.566;10.238;2023-10-19T11:37:47;23.27;;;20.92;;
79137;SDS011;68544;45.566;10.238;2023-10-19T11:40:13;24.13;;;21.67;;
79137;SDS011;68544;45.566;10.238;2023-10-19T11:42:38;28.15;;;25.27;;
79137;SDS011;68544;45.566;10.238;2023-10-19T11:45:05;31.38;;;28.25;;
79137;SDS011;68544;45.566;10.238;2023-10-19T11:47:31;39.28;;;35.20;;
79137;SDS011;68544;45.566;10.238;2023-10-19T11:49:56;35.47;;;32.10;;
79137;SDS011;68544;45.566;10.238;2023-10-19T11:52:22;32.07;;;28.90;;
79137;SDS011;68544;45.566;10.238;2023-10-19T11:54:48;28.13;;;25.35;;
79137;SDS011;68544;45.566;10.238;2023-10-19T11:57:13;27.43;;;24.90;;
79137;SDS011;68544;45.566;10.238;2023-10-19T11:59:39;25.58;;;23.25;;
79137;SDS011;68544;45.566;10.238;2023-10-19T12:02:05;25.25;;;22.83;;
79137;SDS011;68544;45.566;10.238;2023-10-19T12:04:32;24.77;;;22.50;;
79137;SDS011;68544;45.566;10.238;2023-10-19T12:07:01;23.92;;;21.80;;
79137;SDS011;68544;45.566;10.238;2023-10-19T12:09:26;23.80;;;21.42;;
79137;SDS011;68544;45.566;10.238;2023-10-19T12:14:19;23.17;;;20.98;;
79137;SDS011;68544;45.566;10.238;2023-10-19T12:16:46;24.05;;;21.75;;
79137;SDS011;68544;45.566;10.238;2023-10-19T12:19:12;22.42;;;20.27;;
79137;SDS011;68544;45.566;10.238;2023-10-19T12:21:39;24.13;;;21.83;;
79137;SDS011;68544;45.566;10.238;2023-10-19T12:24:06;25.35;;;23.02;;
79137;SDS011;68544;45.566;10.238;2023-10-19T12:26:33;26.38;;;23.80;;
79137;SDS011;68544;45.566;10.238;2023-10-19T12:28:59;27.65;;;24.95;;
79137;SDS011;68544;45.566;10.238;2023-10-19T12:31:24;25.92;;;23.33;;
79137;SDS011;68544;45.566;10.238;2023-10-19T12:33:50;23.33;;;21.23;;
79137;SDS011;68544;45.566;10.238;2023-10-19T12:36:16;24.60;;;22.30;;
79137;SDS011;68544;45.566;10.238;2023-10-19T12:38:53;24.27;;;22.05;;
79137;SDS011;68544;45.566;10.238;2023-10-19T12:41:22;25.83;;;23.52;;
79137;SDS011;68544;45.566;10.238;2023-10-19T12:43:49;23.10;;;20.95;;
79137;SDS011;68544;45.566;10.238;2023-10-19T12:46:17;23.23;;;21.10;;
79137;SDS011;68544;45.566;10.238;2023-10-19T12:48:44;23.77;;;21.67;;
79137;SDS011;68544;45.566;10.238;2023-10-19T12:51:11;25.40;;;23.00;;
79137;SDS011;68544;45.566;10.238;2023-10-19T12:53:38;24.58;;;22.20;;
79137;SDS011;68544;45.566;10.238;2023-10-19T12:56:04;25.33;;;23.10;;
79137;SDS011;68544;45.566;10.238;2023-10-19T12:58:31;23.77;;;21.63;;
79137;SDS011;68544;45.566;10.238;2023-10-19T13:00:57;24.77;;;22.58;;
79137;SDS011;68544;45.566;10.238;2023-10-19T13:05:52;27.45;;;24.75;;
79137;SDS011;68544;45.566;10.238;2023-10-19T13:08:18;25.17;;;22.77;;
79137;SDS011;68544;45.566;10.238;2023-10-19T13:10:44;26.17;;;23.75;;
79137;SDS011;68544;45.566;10.238;2023-10-19T13:13:14;26.60;;;24.05;;
79137;SDS011;68544;45.566;10.238;2023-10-19T13:15:42;25.20;;;23.00;;
79137;SDS011;68544;45.566;10.238;2023-10-19T13:18:10;25.70;;;23.25;;
79137;SDS011;68544;45.566;10.238;2023-10-19T13:20:39;25.95;;;23.40;;
79137;SDS011;68544;45.566;10.238;2023-10-19T13:23:09;26.60;;;24.13;;
79137;SDS011;68544;45.566;10.238;2023-10-19T13:25:41;26.55;;;24.05;;
79137;SDS011;68544;45.566;10.238;2023-10-19T13:28:11;26.77;;;24.27;;
79137;SDS011;68544;45.566;10.238;2023-10-19T13:30:41;25.58;;;23.35;;
79137;SDS011;68544;45.566;10.238;2023-10-19T13:33:09;25.08;;;22.88;;
79137;SDS011;68544;45.566;10.238;2023-10-19T13:35:36;24.55;;;22.27;;
79137;SDS011;68544;45.566;10.238;2023-10-19T13:38:06;24.63;;;22.38;;
79137;SDS011;68544;45.566;10.238;2023-10-19T13:40:33;25.67;;;23.27;;
79137;SDS011;68544;45.566;10.238;2023-10-19T13:43:09;27.02;;;24.50;;
79137;SDS011;68544;45.566;10.238;2023-10-19T13:45:41;25.30;;;22.80;;
79137;SDS011;68544;45.566;10.238;2023-10-19T13:48:11;26.98;;;24.40;;
79137;SDS011;68544;45.566;10.238;2023-10-19T13:50:40;25.33;;;22.90;;
79137;SDS011;68544;45.566;10.238;2023-10-19T13:53:14;26.00;;;23.48;;
79137;SDS011;68544;45.566;10.238;2023-10-19T13:55:40;27.80;;;25.00;;
79137;SDS011;68544;45.566;10.238;2023-10-19T13:58:06;26.20;;;23.80;;
79137;SDS011;68544;45.566;10.238;2023-10-19T14:00:32;24.30;;;22.10;;
79137;SDS011;68544;45.566;10.238;2023-10-19T14:03:04;24.95;;;22.60;;
79137;SDS011;68544;45.566;10.238;2023-10-19T14:05:35;24.85;;;22.45;;
79137;SDS011;68544;45.566;10.238;2023-10-19T14:08:05;23.05;;;20.95;;
79137;SDS011;68544;45.566;10.238;2023-10-19T14:10:32;24.30;;;22.00;;
79137;SDS011;68544;45.566;10.238;2023-10-19T14:12:58;25.83;;;23.42;;
79137;SDS011;68544;45.566;10.238;2023-10-19T14:15:24;26.23;;;23.73;;
79137;SDS011;68544;45.566;10.238;2023-10-19T14:17:54;25.35;;;22.88;;
79137;SDS011;68544;45.566;10.238;2023-10-19T14:20:21;25.73;;;23.42;;
79137;SDS011;68544;45.566;10.238;2023-10-19T14:22:50;26.02;;;23.58;;
79137;SDS011;68544;45.566;10.238;2023-10-19T14:25:18;26.73;;;24.10;;
79137;SDS011;68544;45.566;10.238;2023-10-19T14:27:46;25.75;;;23.42;;
79137;SDS011;68544;45.566;10.238;2023-10-19T14:30:30;25.52;;;23.10;;
79137;SDS011;68544;45.566;10.238;2023-10-19T14:32:56;28.23;;;25.60;;
79137;SDS011;68544;45.566;10.238;2023-10-19T14:35:23;25.90;;;23.60;;
79137;SDS011;68544;45.566;10.238;2023-10-19T14:37:51;27.67;;;25.00;;
79137;SDS011;68544;45.566;10.238;2023-10-19T14:40:23;25.42;;;23.05;;
79137;SDS011;68544;45.566;10.238;2023-10-19T14:42:54;25.52;;;23.17;;
79137;SDS011;68544;45.566;10.238;2023-10-19T14:45:22;25.25;;;22.95;;
79137;SDS011;68544;45.566;10.238;2023-10-19T14:50:24;25.33;;;23.02;;
79137;SDS011;68544;45.566;10.238;2023-10-19T14:52:52;26.98;;;24.48;;
79137;SDS011;68544;45.566;10.238;2023-10-19T14:57:44;28.48;;;25.77;;
79137;SDS011;68544;45.566;10.238;2023-10-19T15:00:13;27.42;;;24.63;;
79137;SDS011;68544;45.566;10.238;2023-10-19T15:02:40;25.30;;;23.00;;
79137;SDS011;68544;45.566;10.238;2023-10-19T15:05:09;28.98;;;26.27;;
79137;SDS011;68544;45.566;10.238;2023-10-19T15:07:38;25.20;;;22.90;;
79137;SDS011;68544;45.566;10.238;2023-10-19T15:10:05;24.05;;;21.85;;